Pagrindinis puslapis
METAR-TAF:

METAR-TAF

Oro uostai :

Abumusa, Iranas

platuma: 25-52-33N, ilguma: 055-02-01E, Aukštis: 7 m

Dabartinis oras

Ataskaita buvo paskelbta 54 minutes, ne 09:00 UTC
Vėjas 6 kt iš Vakarų
Temperatūra 35°C
Drėgmė 56%
Slėgis 1004 hPa
Matomumas: 4000 m
Mažai debesys ne aukštis 3000 ft
migla

METAR: OIBA 020900Z 26006KT 4000 HZ FEW030 35/25 Q1004

Laikas: 13:24 (09:54 UTC)


TAF: trūkstamas

Orai ataskaitas ir orų prognozės (METAR, TAF).

turimą stotys yra geltonos ir raudonos taškus žemėlapyje.

Perkelti pele per norėdami pamatyti stoties vardą.

Tada spustelėkite, norėdami matyti oro stebėjimo ir prognozės.

Norėdami pakeisti žemėlapį: spustelėkite ant žalios mygtukų su juodo kryžiaus žemyn,; žalią mygtuką su brūkšneliu, jei norite nutolinti; arba žalių rodyklių gretimoms žemėlapius.


METAR-TAF: